sensor_id;sensor_type;location;lat;lon;timestamp;P1;durP1;ratioP1;P2;durP2;ratioP2
18997;SDS011;9632;51.018;4.284;2023-06-22T00:00:57;3.65;;;2.50;;
18997;SDS011;9632;51.018;4.284;2023-06-22T00:03:24;5.03;;;2.47;;
18997;SDS011;9632;51.018;4.284;2023-06-22T00:05:50;3.25;;;2.25;;
18997;SDS011;9632;51.018;4.284;2023-06-22T00:08:17;4.35;;;2.70;;
18997;SDS011;9632;51.018;4.284;2023-06-22T00:10:43;3.38;;;2.40;;
18997;SDS011;9632;51.018;4.284;2023-06-22T00:13:10;4.72;;;2.53;;
18997;SDS011;9632;51.018;4.284;2023-06-22T00:15:36;5.45;;;2.85;;
18997;SDS011;9632;51.018;4.284;2023-06-22T00:18:04;4.35;;;2.38;;
18997;SDS011;9632;51.018;4.284;2023-06-22T00:20:31;4.45;;;2.70;;
18997;SDS011;9632;51.018;4.284;2023-06-22T00:22:58;4.57;;;2.83;;
18997;SDS011;9632;51.018;4.284;2023-06-22T00:25:24;5.10;;;2.90;;
18997;SDS011;9632;51.018;4.284;2023-06-22T00:27:50;4.45;;;2.85;;
18997;SDS011;9632;51.018;4.284;2023-06-22T00:30:16;5.13;;;2.72;;
18997;SDS011;9632;51.018;4.284;2023-06-22T00:32:44;5.75;;;2.70;;
18997;SDS011;9632;51.018;4.284;2023-06-22T00:35:10;4.80;;;2.28;;
18997;SDS011;9632;51.018;4.284;2023-06-22T00:37:39;3.40;;;2.78;;
18997;SDS011;9632;51.018;4.284;2023-06-22T00:40:08;4.68;;;3.00;;
18997;SDS011;9632;51.018;4.284;2023-06-22T00:42:36;6.53;;;3.20;;
18997;SDS011;9632;51.018;4.284;2023-06-22T00:45:03;4.30;;;2.70;;
18997;SDS011;9632;51.018;4.284;2023-06-22T00:47:29;4.47;;;2.92;;
18997;SDS011;9632;51.018;4.284;2023-06-22T00:49:54;3.30;;;2.58;;
18997;SDS011;9632;51.018;4.284;2023-06-22T00:52:21;7.60;;;3.28;;
18997;SDS011;9632;51.018;4.284;2023-06-22T00:54:52;3.83;;;2.38;;
18997;SDS011;9632;51.018;4.284;2023-06-22T00:57:18;3.95;;;2.75;;
18997;SDS011;9632;51.018;4.284;2023-06-22T00:59:45;5.10;;;2.97;;
18997;SDS011;9632;51.018;4.284;2023-06-22T01:02:12;4.72;;;2.70;;
18997;SDS011;9632;51.018;4.284;2023-06-22T01:04:38;5.20;;;2.55;;
18997;SDS011;9632;51.018;4.284;2023-06-22T01:10:16;5.97;;;2.97;;
18997;SDS011;9632;51.018;4.284;2023-06-22T01:12:50;2.97;;;2.38;;
18997;SDS011;9632;51.018;4.284;2023-06-22T01:18:18;4.05;;;2.70;;
18997;SDS011;9632;51.018;4.284;2023-06-22T01:20:51;4.30;;;2.72;;
18997;SDS011;9632;51.018;4.284;2023-06-22T01:26:28;6.68;;;3.08;;
18997;SDS011;9632;51.018;4.284;2023-06-22T01:29:19;6.45;;;3.17;;
18997;SDS011;9632;51.018;4.284;2023-06-22T01:31:46;5.75;;;3.10;;
18997;SDS011;9632;51.018;4.284;2023-06-22T01:34:14;4.85;;;2.67;;
18997;SDS011;9632;51.018;4.284;2023-06-22T01:36:41;4.68;;;3.10;;
18997;SDS011;9632;51.018;4.284;2023-06-22T01:39:08;5.20;;;3.33;;
18997;SDS011;9632;51.018;4.284;2023-06-22T01:41:36;4.85;;;2.67;;
18997;SDS011;9632;51.018;4.284;2023-06-22T01:44:06;4.40;;;3.03;;
18997;SDS011;9632;51.018;4.284;2023-06-22T01:46:34;3.72;;;2.53;;
18997;SDS011;9632;51.018;4.284;2023-06-22T01:49:01;5.88;;;2.90;;
18997;SDS011;9632;51.018;4.284;2023-06-22T01:51:27;4.38;;;2.80;;
18997;SDS011;9632;51.018;4.284;2023-06-22T01:53:53;4.60;;;2.80;;
18997;SDS011;9632;51.018;4.284;2023-06-22T01:56:18;5.55;;;3.13;;
18997;SDS011;9632;51.018;4.284;2023-06-22T01:58:48;4.05;;;2.80;;
18997;SDS011;9632;51.018;4.284;2023-06-22T02:01:20;4.72;;;2.70;;
18997;SDS011;9632;51.018;4.284;2023-06-22T02:04:09;5.10;;;2.90;;
18997;SDS011;9632;51.018;4.284;2023-06-22T02:06:41;4.10;;;2.95;;
18997;SDS011;9632;51.018;4.284;2023-06-22T02:09:09;5.38;;;2.80;;
18997;SDS011;9632;51.018;4.284;2023-06-22T02:11:40;6.70;;;2.67;;
18997;SDS011;9632;51.018;4.284;2023-06-22T02:14:07;4.22;;;2.60;;
18997;SDS011;9632;51.018;4.284;2023-06-22T02:16:33;5.68;;;2.88;;
18997;SDS011;9632;51.018;4.284;2023-06-22T02:19:00;4.50;;;2.40;;
18997;SDS011;9632;51.018;4.284;2023-06-22T02:21:31;5.72;;;2.90;;
18997;SDS011;9632;51.018;4.284;2023-06-22T02:23:57;3.83;;;2.80;;
18997;SDS011;9632;51.018;4.284;2023-06-22T02:26:23;5.93;;;2.70;;
18997;SDS011;9632;51.018;4.284;2023-06-22T02:28:50;3.63;;;2.65;;
18997;SDS011;9632;51.018;4.284;2023-06-22T02:31:16;2.83;;;1.92;;
18997;SDS011;9632;51.018;4.284;2023-06-22T02:33:42;2.83;;;2.40;;
18997;SDS011;9632;51.018;4.284;2023-06-22T02:36:08;3.75;;;2.30;;
18997;SDS011;9632;51.018;4.284;2023-06-22T02:38:34;3.10;;;2.30;;
18997;SDS011;9632;51.018;4.284;2023-06-22T02:41:01;7.00;;;2.70;;
18997;SDS011;9632;51.018;4.284;2023-06-22T02:43:27;5.18;;;2.50;;
18997;SDS011;9632;51.018;4.284;2023-06-22T02:45:53;4.32;;;2.67;;
18997;SDS011;9632;51.018;4.284;2023-06-22T02:48:19;4.85;;;3.22;;
18997;SDS011;9632;51.018;4.284;2023-06-22T02:50:44;5.15;;;2.58;;
18997;SDS011;9632;51.018;4.284;2023-06-22T02:53:10;4.95;;;2.50;;
18997;SDS011;9632;51.018;4.284;2023-06-22T02:55:36;5.60;;;2.80;;
18997;SDS011;9632;51.018;4.284;2023-06-22T02:58:01;5.15;;;2.95;;
18997;SDS011;9632;51.018;4.284;2023-06-22T03:00:30;3.80;;;2.58;;
18997;SDS011;9632;51.018;4.284;2023-06-22T03:02:56;4.63;;;3.13;;
18997;SDS011;9632;51.018;4.284;2023-06-22T03:05:22;5.15;;;3.17;;
18997;SDS011;9632;51.018;4.284;2023-06-22T03:07:48;6.65;;;3.72;;
18997;SDS011;9632;51.018;4.284;2023-06-22T03:10:15;4.18;;;3.00;;
18997;SDS011;9632;51.018;4.284;2023-06-22T03:12:41;6.30;;;3.85;;
18997;SDS011;9632;51.018;4.284;2023-06-22T03:15:08;6.80;;;3.63;;
18997;SDS011;9632;51.018;4.284;2023-06-22T03:17:35;7.43;;;3.53;;
18997;SDS011;9632;51.018;4.284;2023-06-22T03:20:02;5.05;;;3.20;;
18997;SDS011;9632;51.018;4.284;2023-06-22T03:22:39;5.43;;;3.60;;
18997;SDS011;9632;51.018;4.284;2023-06-22T03:25:05;6.20;;;3.55;;
18997;SDS011;9632;51.018;4.284;2023-06-22T03:27:34;7.20;;;3.70;;
18997;SDS011;9632;51.018;4.284;2023-06-22T03:30:01;4.80;;;3.15;;
18997;SDS011;9632;51.018;4.284;2023-06-22T03:32:27;4.72;;;3.33;;
18997;SDS011;9632;51.018;4.284;2023-06-22T03:34:53;5.38;;;3.50;;
18997;SDS011;9632;51.018;4.284;2023-06-22T03:37:18;6.80;;;3.67;;
18997;SDS011;9632;51.018;4.284;2023-06-22T03:39:44;5.07;;;3.28;;
18997;SDS011;9632;51.018;4.284;2023-06-22T03:42:10;5.15;;;3.40;;
18997;SDS011;9632;51.018;4.284;2023-06-22T03:44:35;5.00;;;3.40;;
18997;SDS011;9632;51.018;4.284;2023-06-22T03:47:02;5.07;;;3.38;;
18997;SDS011;9632;51.018;4.284;2023-06-22T03:49:32;5.00;;;3.20;;
18997;SDS011;9632;51.018;4.284;2023-06-22T03:51:59;6.85;;;3.53;;
18997;SDS011;9632;51.018;4.284;2023-06-22T03:54:26;5.80;;;3.10;;
18997;SDS011;9632;51.018;4.284;2023-06-22T03:56:53;5.75;;;3.60;;
18997;SDS011;9632;51.018;4.284;2023-06-22T03:59:19;5.80;;;3.50;;
18997;SDS011;9632;51.018;4.284;2023-06-22T04:01:44;5.07;;;2.97;;
18997;SDS011;9632;51.018;4.284;2023-06-22T04:04:11;5.22;;;3.35;;
18997;SDS011;9632;51.018;4.284;2023-06-22T04:06:37;5.00;;;2.83;;
18997;SDS011;9632;51.018;4.284;2023-06-22T04:09:03;5.38;;;3.28;;
18997;SDS011;9632;51.018;4.284;2023-06-22T04:11:30;7.10;;;3.80;;
18997;SDS011;9632;51.018;4.284;2023-06-22T04:13:56;5.25;;;3.42;;
18997;SDS011;9632;51.018;4.284;2023-06-22T04:16:21;6.70;;;3.33;;
18997;SDS011;9632;51.018;4.284;2023-06-22T04:18:47;5.13;;;3.35;;
18997;SDS011;9632;51.018;4.284;2023-06-22T04:21:13;4.47;;;3.35;;
18997;SDS011;9632;51.018;4.284;2023-06-22T04:23:38;5.95;;;3.60;;
18997;SDS011;9632;51.018;4.284;2023-06-22T04:26:04;6.85;;;3.28;;
18997;SDS011;9632;51.018;4.284;2023-06-22T04:28:30;5.57;;;3.60;;
18997;SDS011;9632;51.018;4.284;2023-06-22T04:30:59;5.13;;;3.50;;
18997;SDS011;9632;51.018;4.284;2023-06-22T04:33:27;7.00;;;4.22;;
18997;SDS011;9632;51.018;4.284;2023-06-22T04:35:56;6.78;;;3.72;;
18997;SDS011;9632;51.018;4.284;2023-06-22T04:38:22;5.18;;;3.28;;
18997;SDS011;9632;51.018;4.284;2023-06-22T04:40:49;9.07;;;3.83;;
18997;SDS011;9632;51.018;4.284;2023-06-22T04:43:15;7.40;;;4.20;;
18997;SDS011;9632;51.018;4.284;2023-06-22T04:45:41;6.38;;;4.15;;
18997;SDS011;9632;51.018;4.284;2023-06-22T04:48:06;6.25;;;3.80;;
18997;SDS011;9632;51.018;4.284;2023-06-22T04:50:34;6.55;;;3.88;;
18997;SDS011;9632;51.018;4.284;2023-06-22T04:53:04;5.07;;;3.50;;
18997;SDS011;9632;51.018;4.284;2023-06-22T04:55:31;8.82;;;4.00;;
18997;SDS011;9632;51.018;4.284;2023-06-22T04:57:57;7.43;;;3.80;;
18997;SDS011;9632;51.018;4.284;2023-06-22T05:00:29;7.25;;;3.40;;
18997;SDS011;9632;51.018;4.284;2023-06-22T05:02:55;6.20;;;3.10;;
18997;SDS011;9632;51.018;4.284;2023-06-22T05:05:22;5.03;;;3.20;;
18997;SDS011;9632;51.018;4.284;2023-06-22T05:07:49;6.05;;;3.70;;
18997;SDS011;9632;51.018;4.284;2023-06-22T05:10:18;5.60;;;3.80;;
18997;SDS011;9632;51.018;4.284;2023-06-22T05:12:44;6.75;;;3.78;;
18997;SDS011;9632;51.018;4.284;2023-06-22T05:15:11;6.05;;;3.60;;
18997;SDS011;9632;51.018;4.284;2023-06-22T05:17:36;4.65;;;3.13;;
18997;SDS011;9632;51.018;4.284;2023-06-22T05:20:08;6.80;;;3.63;;
18997;SDS011;9632;51.018;4.284;2023-06-22T05:22:35;5.22;;;3.50;;
18997;SDS011;9632;51.018;4.284;2023-06-22T05:25:00;5.72;;;3.90;;
18997;SDS011;9632;51.018;4.284;2023-06-22T05:27:26;7.53;;;4.38;;
18997;SDS011;9632;51.018;4.284;2023-06-22T05:29:51;10.07;;;4.95;;
18997;SDS011;9632;51.018;4.284;2023-06-22T05:32:17;6.97;;;4.22;;
18997;SDS011;9632;51.018;4.284;2023-06-22T05:34:43;4.97;;;3.78;;
18997;SDS011;9632;51.018;4.284;2023-06-22T05:37:09;6.60;;;4.35;;
18997;SDS011;9632;51.018;4.284;2023-06-22T05:39:35;6.70;;;3.83;;
18997;SDS011;9632;51.018;4.284;2023-06-22T05:42:04;10.50;;;5.30;;
18997;SDS011;9632;51.018;4.284;2023-06-22T05:44:32;8.07;;;4.80;;
18997;SDS011;9632;51.018;4.284;2023-06-22T05:46:58;10.23;;;6.00;;
18997;SDS011;9632;51.018;4.284;2023-06-22T05:49:24;12.60;;;7.10;;
18997;SDS011;9632;51.018;4.284;2023-06-22T05:51:54;15.45;;;6.50;;
18997;SDS011;9632;51.018;4.284;2023-06-22T05:54:20;13.20;;;6.65;;
18997;SDS011;9632;51.018;4.284;2023-06-22T05:56:46;11.52;;;6.25;;
18997;SDS011;9632;51.018;4.284;2023-06-22T05:59:11;13.52;;;6.30;;
18997;SDS011;9632;51.018;4.284;2023-06-22T06:01:37;11.23;;;6.35;;
18997;SDS011;9632;51.018;4.284;2023-06-22T06:04:04;13.77;;;6.90;;
18997;SDS011;9632;51.018;4.284;2023-06-22T06:06:33;17.55;;;8.52;;
18997;SDS011;9632;51.018;4.284;2023-06-22T06:09:02;11.70;;;7.60;;
18997;SDS011;9632;51.018;4.284;2023-06-22T06:11:32;12.82;;;7.75;;
18997;SDS011;9632;51.018;4.284;2023-06-22T06:13:58;12.27;;;7.75;;
18997;SDS011;9632;51.018;4.284;2023-06-22T06:16:24;14.95;;;7.95;;
18997;SDS011;9632;51.018;4.284;2023-06-22T06:18:49;14.30;;;7.68;;
18997;SDS011;9632;51.018;4.284;2023-06-22T06:21:15;17.70;;;8.35;;
18997;SDS011;9632;51.018;4.284;2023-06-22T06:23:41;17.20;;;9.35;;
18997;SDS011;9632;51.018;4.284;2023-06-22T06:26:07;14.82;;;8.65;;
18997;SDS011;9632;51.018;4.284;2023-06-22T06:28:34;17.98;;;8.95;;
18997;SDS011;9632;51.018;4.284;2023-06-22T06:31:00;16.27;;;9.10;;
18997;SDS011;9632;51.018;4.284;2023-06-22T06:33:26;14.02;;;8.30;;
18997;SDS011;9632;51.018;4.284;2023-06-22T06:35:51;15.48;;;9.20;;
18997;SDS011;9632;51.018;4.284;2023-06-22T06:38:17;20.20;;;9.88;;
18997;SDS011;9632;51.018;4.284;2023-06-22T06:40:43;14.05;;;8.68;;
18997;SDS011;9632;51.018;4.284;2023-06-22T06:43:10;15.68;;;9.32;;
18997;SDS011;9632;51.018;4.284;2023-06-22T06:45:35;15.82;;;9.75;;
18997;SDS011;9632;51.018;4.284;2023-06-22T06:48:01;16.80;;;10.10;;
18997;SDS011;9632;51.018;4.284;2023-06-22T06:50:27;16.60;;;10.02;;
18997;SDS011;9632;51.018;4.284;2023-06-22T06:52:53;20.67;;;12.77;;
18997;SDS011;9632;51.018;4.284;2023-06-22T06:55:18;22.98;;;12.52;;
18997;SDS011;9632;51.018;4.284;2023-06-22T06:57:45;23.73;;;12.90;;
18997;SDS011;9632;51.018;4.284;2023-06-22T07:00:13;27.80;;;13.50;;
18997;SDS011;9632;51.018;4.284;2023-06-22T07:02:40;22.65;;;13.25;;
18997;SDS011;9632;51.018;4.284;2023-06-22T07:05:10;23.77;;;14.77;;
18997;SDS011;9632;51.018;4.284;2023-06-22T07:07:37;20.45;;;13.40;;
18997;SDS011;9632;51.018;4.284;2023-06-22T07:10:03;25.02;;;14.98;;
18997;SDS011;9632;51.018;4.284;2023-06-22T07:12:30;21.90;;;13.25;;
18997;SDS011;9632;51.018;4.284;2023-06-22T07:15:05;27.90;;;15.07;;
18997;SDS011;9632;51.018;4.284;2023-06-22T07:17:33;23.88;;;14.13;;
18997;SDS011;9632;51.018;4.284;2023-06-22T07:19:59;26.77;;;15.40;;
18997;SDS011;9632;51.018;4.284;2023-06-22T07:22:25;28.67;;;15.75;;
18997;SDS011;9632;51.018;4.284;2023-06-22T07:24:51;28.63;;;15.70;;
18997;SDS011;9632;51.018;4.284;2023-06-22T07:27:17;24.42;;;15.07;;
18997;SDS011;9632;51.018;4.284;2023-06-22T07:29:44;26.70;;;14.68;;
18997;SDS011;9632;51.018;4.284;2023-06-22T07:32:09;24.27;;;15.63;;
18997;SDS011;9632;51.018;4.284;2023-06-22T07:34:35;22.88;;;14.13;;
18997;SDS011;9632;51.018;4.284;2023-06-22T07:37:01;25.35;;;14.82;;
18997;SDS011;9632;51.018;4.284;2023-06-22T07:39:27;22.63;;;14.38;;
18997;SDS011;9632;51.018;4.284;2023-06-22T07:41:54;29.92;;;16.17;;
18997;SDS011;9632;51.018;4.284;2023-06-22T07:44:19;25.05;;;15.88;;
18997;SDS011;9632;51.018;4.284;2023-06-22T07:46:45;24.27;;;14.77;;
18997;SDS011;9632;51.018;4.284;2023-06-22T07:49:13;21.50;;;12.32;;
18997;SDS011;9632;51.018;4.284;2023-06-22T07:51:41;25.77;;;14.82;;
18997;SDS011;9632;51.018;4.284;2023-06-22T07:54:08;29.02;;;14.57;;
18997;SDS011;9632;51.018;4.284;2023-06-22T07:56:35;24.50;;;14.82;;
18997;SDS011;9632;51.018;4.284;2023-06-22T07:59:01;25.10;;;13.15;;
18997;SDS011;9632;51.018;4.284;2023-06-22T08:01:28;21.77;;;14.07;;
18997;SDS011;9632;51.018;4.284;2023-06-22T08:03:54;22.23;;;13.98;;
18997;SDS011;9632;51.018;4.284;2023-06-22T08:06:20;20.05;;;12.55;;
18997;SDS011;9632;51.018;4.284;2023-06-22T08:08:46;19.35;;;13.20;;
18997;SDS011;9632;51.018;4.284;2023-06-22T08:11:14;19.05;;;11.82;;
18997;SDS011;9632;51.018;4.284;2023-06-22T08:13:39;19.17;;;11.35;;
18997;SDS011;9632;51.018;4.284;2023-06-22T08:16:05;17.95;;;11.55;;
18997;SDS011;9632;51.018;4.284;2023-06-22T08:18:32;19.15;;;12.25;;
18997;SDS011;9632;51.018;4.284;2023-06-22T08:20:58;19.83;;;12.35;;
18997;SDS011;9632;51.018;4.284;2023-06-22T08:23:23;21.88;;;13.15;;
18997;SDS011;9632;51.018;4.284;2023-06-22T08:25:49;21.83;;;12.85;;
18997;SDS011;9632;51.018;4.284;2023-06-22T08:28:15;23.30;;;12.43;;
18997;SDS011;9632;51.018;4.284;2023-06-22T08:30:41;20.27;;;12.35;;
18997;SDS011;9632;51.018;4.284;2023-06-22T08:33:06;16.75;;;11.35;;
18997;SDS011;9632;51.018;4.284;2023-06-22T08:35:32;25.08;;;11.75;;
18997;SDS011;9632;51.018;4.284;2023-06-22T08:37:58;19.42;;;12.15;;
18997;SDS011;9632;51.018;4.284;2023-06-22T08:40:24;23.65;;;12.35;;
18997;SDS011;9632;51.018;4.284;2023-06-22T08:42:50;17.25;;;10.52;;
18997;SDS011;9632;51.018;4.284;2023-06-22T08:45:16;21.48;;;11.52;;
18997;SDS011;9632;51.018;4.284;2023-06-22T08:47:42;21.83;;;12.15;;
18997;SDS011;9632;51.018;4.284;2023-06-22T08:50:08;19.90;;;11.32;;
18997;SDS011;9632;51.018;4.284;2023-06-22T08:52:35;17.65;;;10.25;;
18997;SDS011;9632;51.018;4.284;2023-06-22T08:55:00;19.25;;;10.75;;
18997;SDS011;9632;51.018;4.284;2023-06-22T08:57:26;17.70;;;11.30;;
18997;SDS011;9632;51.018;4.284;2023-06-22T08:59:53;19.75;;;10.40;;
18997;SDS011;9632;51.018;4.284;2023-06-22T09:02:23;11.93;;;8.57;;
18997;SDS011;9632;51.018;4.284;2023-06-22T09:04:49;11.52;;;7.82;;
18997;SDS011;9632;51.018;4.284;2023-06-22T09:07:20;22.15;;;11.35;;
18997;SDS011;9632;51.018;4.284;2023-06-22T09:09:49;18.13;;;11.32;;
18997;SDS011;9632;51.018;4.284;2023-06-22T09:12:16;14.63;;;9.75;;
18997;SDS011;9632;51.018;4.284;2023-06-22T09:14:44;18.27;;;10.70;;
18997;SDS011;9632;51.018;4.284;2023-06-22T09:17:12;16.88;;;10.13;;
18997;SDS011;9632;51.018;4.284;2023-06-22T09:19:38;15.32;;;9.35;;
18997;SDS011;9632;51.018;4.284;2023-06-22T09:22:03;17.48;;;10.77;;
18997;SDS011;9632;51.018;4.284;2023-06-22T09:24:31;16.70;;;10.50;;
18997;SDS011;9632;51.018;4.284;2023-06-22T09:26:57;13.65;;;9.30;;
18997;SDS011;9632;51.018;4.284;2023-06-22T09:29:22;16.00;;;9.05;;
18997;SDS011;9632;51.018;4.284;2023-06-22T09:31:48;12.35;;;7.93;;
18997;SDS011;9632;51.018;4.284;2023-06-22T09:34:14;10.52;;;6.32;;
18997;SDS011;9632;51.018;4.284;2023-06-22T09:36:40;9.48;;;6.25;;
18997;SDS011;9632;51.018;4.284;2023-06-22T09:39:06;10.68;;;5.60;;
18997;SDS011;9632;51.018;4.284;2023-06-22T09:41:32;11.13;;;6.40;;
18997;SDS011;9632;51.018;4.284;2023-06-22T09:43:57;9.57;;;6.28;;
18997;SDS011;9632;51.018;4.284;2023-06-22T09:46:23;9.40;;;5.78;;
18997;SDS011;9632;51.018;4.284;2023-06-22T09:48:51;11.77;;;6.75;;
18997;SDS011;9632;51.018;4.284;2023-06-22T09:51:17;9.77;;;6.28;;
18997;SDS011;9632;51.018;4.284;2023-06-22T09:53:44;10.57;;;6.03;;
18997;SDS011;9632;51.018;4.284;2023-06-22T09:56:10;9.25;;;5.85;;
18997;SDS011;9632;51.018;4.284;2023-06-22T09:58:39;11.23;;;6.97;;
18997;SDS011;9632;51.018;4.284;2023-06-22T10:01:08;13.82;;;7.28;;
18997;SDS011;9632;51.018;4.284;2023-06-22T10:03:35;10.52;;;6.10;;
18997;SDS011;9632;51.018;4.284;2023-06-22T10:06:01;12.10;;;7.13;;
18997;SDS011;9632;51.018;4.284;2023-06-22T10:08:27;11.50;;;6.85;;
18997;SDS011;9632;51.018;4.284;2023-06-22T10:10:53;10.15;;;6.10;;
18997;SDS011;9632;51.018;4.284;2023-06-22T10:13:19;13.43;;;8.38;;
18997;SDS011;9632;51.018;4.284;2023-06-22T10:15:45;13.93;;;8.70;;
18997;SDS011;9632;51.018;4.284;2023-06-22T10:18:15;11.52;;;8.20;;
18997;SDS011;9632;51.018;4.284;2023-06-22T10:20:41;14.80;;;8.82;;
18997;SDS011;9632;51.018;4.284;2023-06-22T10:23:07;13.43;;;9.10;;
18997;SDS011;9632;51.018;4.284;2023-06-22T10:25:32;14.95;;;9.15;;
18997;SDS011;9632;51.018;4.284;2023-06-22T10:27:58;15.07;;;9.70;;
18997;SDS011;9632;51.018;4.284;2023-06-22T10:30:23;12.50;;;8.65;;
18997;SDS011;9632;51.018;4.284;2023-06-22T10:32:49;28.23;;;13.95;;
18997;SDS011;9632;51.018;4.284;2023-06-22T10:35:15;22.55;;;13.07;;
18997;SDS011;9632;51.018;4.284;2023-06-22T10:37:44;26.00;;;14.23;;
18997;SDS011;9632;51.018;4.284;2023-06-22T10:40:14;20.30;;;13.27;;
18997;SDS011;9632;51.018;4.284;2023-06-22T10:42:40;25.23;;;14.50;;
18997;SDS011;9632;51.018;4.284;2023-06-22T10:45:06;20.63;;;13.18;;
18997;SDS011;9632;51.018;4.284;2023-06-22T10:47:33;23.65;;;14.55;;
18997;SDS011;9632;51.018;4.284;2023-06-22T10:49:59;24.25;;;13.55;;
18997;SDS011;9632;51.018;4.284;2023-06-22T10:52:24;22.40;;;13.95;;
18997;SDS011;9632;51.018;4.284;2023-06-22T10:54:50;26.20;;;14.55;;
18997;SDS011;9632;51.018;4.284;2023-06-22T10:57:17;23.02;;;13.93;;
18997;SDS011;9632;51.018;4.284;2023-06-22T10:59:42;25.63;;;14.40;;
18997;SDS011;9632;51.018;4.284;2023-06-22T11:02:08;26.92;;;16.88;;
18997;SDS011;9632;51.018;4.284;2023-06-22T11:04:33;28.52;;;17.38;;
18997;SDS011;9632;51.018;4.284;2023-06-22T11:07:00;26.05;;;16.73;;
18997;SDS011;9632;51.018;4.284;2023-06-22T11:09:25;27.98;;;16.27;;
18997;SDS011;9632;51.018;4.284;2023-06-22T11:11:51;25.63;;;16.85;;
18997;SDS011;9632;51.018;4.284;2023-06-22T11:14:18;29.10;;;16.85;;
18997;SDS011;9632;51.018;4.284;2023-06-22T11:16:44;28.48;;;17.45;;
18997;SDS011;9632;51.018;4.284;2023-06-22T11:19:11;28.35;;;17.85;;
18997;SDS011;9632;51.018;4.284;2023-06-22T11:21:37;38.83;;;18.92;;
18997;SDS011;9632;51.018;4.284;2023-06-22T11:24:02;31.48;;;20.35;;
18997;SDS011;9632;51.018;4.284;2023-06-22T11:26:28;27.23;;;18.30;;
18997;SDS011;9632;51.018;4.284;2023-06-22T11:28:54;31.98;;;19.75;;
18997;SDS011;9632;51.018;4.284;2023-06-22T11:31:20;30.52;;;20.02;;
18997;SDS011;9632;51.018;4.284;2023-06-22T11:33:46;31.98;;;20.88;;
18997;SDS011;9632;51.018;4.284;2023-06-22T11:36:13;31.52;;;20.23;;
18997;SDS011;9632;51.018;4.284;2023-06-22T11:38:39;34.13;;;21.73;;
18997;SDS011;9632;51.018;4.284;2023-06-22T11:41:08;33.90;;;20.85;;
18997;SDS011;9632;51.018;4.284;2023-06-22T11:43:34;35.72;;;22.45;;
18997;SDS011;9632;51.018;4.284;2023-06-22T11:46:01;36.60;;;22.50;;
18997;SDS011;9632;51.018;4.284;2023-06-22T11:48:28;35.63;;;21.98;;
18997;SDS011;9632;51.018;4.284;2023-06-22T11:50:58;37.55;;;23.38;;
18997;SDS011;9632;51.018;4.284;2023-06-22T11:53:24;39.08;;;23.98;;
18997;SDS011;9632;51.018;4.284;2023-06-22T11:55:51;42.22;;;23.48;;
18997;SDS011;9632;51.018;4.284;2023-06-22T11:58:18;38.55;;;24.88;;
18997;SDS011;9632;51.018;4.284;2023-06-22T12:00:44;33.33;;;21.70;;
18997;SDS011;9632;51.018;4.284;2023-06-22T12:03:10;39.53;;;23.33;;
18997;SDS011;9632;51.018;4.284;2023-06-22T12:05:37;33.10;;;19.58;;
18997;SDS011;9632;51.018;4.284;2023-06-22T12:08:03;35.22;;;21.77;;
18997;SDS011;9632;51.018;4.284;2023-06-22T12:10:29;36.05;;;22.20;;
18997;SDS011;9632;51.018;4.284;2023-06-22T12:12:55;29.02;;;18.50;;
18997;SDS011;9632;51.018;4.284;2023-06-22T12:15:22;29.05;;;19.08;;
18997;SDS011;9632;51.018;4.284;2023-06-22T12:17:48;29.02;;;18.15;;
18997;SDS011;9632;51.018;4.284;2023-06-22T12:20:14;28.10;;;17.77;;
18997;SDS011;9632;51.018;4.284;2023-06-22T12:22:40;27.65;;;16.05;;
18997;SDS011;9632;51.018;4.284;2023-06-22T12:25:06;27.42;;;16.35;;
18997;SDS011;9632;51.018;4.284;2023-06-22T12:27:33;25.52;;;16.02;;
18997;SDS011;9632;51.018;4.284;2023-06-22T12:30:00;26.35;;;16.73;;
18997;SDS011;9632;51.018;4.284;2023-06-22T12:32:25;24.42;;;16.05;;
18997;SDS011;9632;51.018;4.284;2023-06-22T12:34:51;29.02;;;17.60;;
18997;SDS011;9632;51.018;4.284;2023-06-22T12:37:17;28.15;;;16.67;;
18997;SDS011;9632;51.018;4.284;2023-06-22T12:39:43;31.92;;;18.10;;
18997;SDS011;9632;51.018;4.284;2023-06-22T12:42:09;30.02;;;18.25;;
18997;SDS011;9632;51.018;4.284;2023-06-22T12:44:37;26.65;;;17.60;;
18997;SDS011;9632;51.018;4.284;2023-06-22T12:47:03;28.67;;;17.80;;
18997;SDS011;9632;51.018;4.284;2023-06-22T12:49:29;30.17;;;18.13;;
18997;SDS011;9632;51.018;4.284;2023-06-22T12:51:54;30.27;;;19.27;;
18997;SDS011;9632;51.018;4.284;2023-06-22T12:54:20;29.33;;;19.10;;
18997;SDS011;9632;51.018;4.284;2023-06-22T12:56:46;29.45;;;18.98;;
18997;SDS011;9632;51.018;4.284;2023-06-22T12:59:12;27.92;;;18.50;;
18997;SDS011;9632;51.018;4.284;2023-06-22T13:01:37;28.52;;;18.88;;
18997;SDS011;9632;51.018;4.284;2023-06-22T13:04:03;30.55;;;17.98;;
18997;SDS011;9632;51.018;4.284;2023-06-22T13:06:30;22.00;;;15.80;;
18997;SDS011;9632;51.018;4.284;2023-06-22T13:08:55;30.67;;;19.45;;
18997;SDS011;9632;51.018;4.284;2023-06-22T13:11:21;25.65;;;17.20;;
18997;SDS011;9632;51.018;4.284;2023-06-22T13:13:47;26.63;;;17.80;;
18997;SDS011;9632;51.018;4.284;2023-06-22T13:16:12;27.02;;;17.52;;
18997;SDS011;9632;51.018;4.284;2023-06-22T13:18:38;29.42;;;18.70;;
18997;SDS011;9632;51.018;4.284;2023-06-22T13:21:04;30.23;;;19.92;;
18997;SDS011;9632;51.018;4.284;2023-06-22T13:23:30;29.25;;;17.55;;
18997;SDS011;9632;51.018;4.284;2023-06-22T13:25:56;31.35;;;18.98;;
18997;SDS011;9632;51.018;4.284;2023-06-22T13:28:22;26.35;;;18.27;;
18997;SDS011;9632;51.018;4.284;2023-06-22T13:30:48;27.80;;;18.92;;
18997;SDS011;9632;51.018;4.284;2023-06-22T13:33:14;27.98;;;18.58;;
18997;SDS011;9632;51.018;4.284;2023-06-22T13:35:40;29.52;;;18.38;;
18997;SDS011;9632;51.018;4.284;2023-06-22T13:38:07;30.00;;;18.70;;
18997;SDS011;9632;51.018;4.284;2023-06-22T13:40:34;30.75;;;20.55;;
18997;SDS011;9632;51.018;4.284;2023-06-22T13:42:59;29.75;;;19.30;;
18997;SDS011;9632;51.018;4.284;2023-06-22T13:45:25;27.08;;;17.55;;
18997;SDS011;9632;51.018;4.284;2023-06-22T13:47:51;32.97;;;21.17;;
18997;SDS011;9632;51.018;4.284;2023-06-22T13:50:17;34.75;;;21.50;;
18997;SDS011;9632;51.018;4.284;2023-06-22T13:52:43;28.42;;;19.85;;
18997;SDS011;9632;51.018;4.284;2023-06-22T13:55:08;35.45;;;22.70;;
18997;SDS011;9632;51.018;4.284;2023-06-22T13:57:35;32.20;;;21.00;;
18997;SDS011;9632;51.018;4.284;2023-06-22T14:00:01;34.20;;;21.52;;
18997;SDS011;9632;51.018;4.284;2023-06-22T14:02:28;33.38;;;21.15;;
18997;SDS011;9632;51.018;4.284;2023-06-22T14:04:54;31.98;;;18.95;;
18997;SDS011;9632;51.018;4.284;2023-06-22T14:07:20;31.73;;;18.73;;
18997;SDS011;9632;51.018;4.284;2023-06-22T14:09:46;30.17;;;19.50;;
18997;SDS011;9632;51.018;4.284;2023-06-22T14:12:11;30.33;;;18.63;;
18997;SDS011;9632;51.018;4.284;2023-06-22T14:14:37;36.38;;;24.17;;
18997;SDS011;9632;51.018;4.284;2023-06-22T14:17:03;29.67;;;19.88;;
18997;SDS011;9632;51.018;4.284;2023-06-22T14:19:30;26.77;;;17.35;;
18997;SDS011;9632;51.018;4.284;2023-06-22T14:21:58;35.22;;;22.40;;
18997;SDS011;9632;51.018;4.284;2023-06-22T14:24:24;39.47;;;26.13;;
18997;SDS011;9632;51.018;4.284;2023-06-22T14:26:49;47.00;;;29.35;;
18997;SDS011;9632;51.018;4.284;2023-06-22T14:29:15;50.67;;;29.48;;
18997;SDS011;9632;51.018;4.284;2023-06-22T14:31:44;49.42;;;30.38;;
18997;SDS011;9632;51.018;4.284;2023-06-22T14:34:11;43.75;;;28.08;;
18997;SDS011;9632;51.018;4.284;2023-06-22T14:36:36;50.13;;;32.58;;
18997;SDS011;9632;51.018;4.284;2023-06-22T14:39:02;44.42;;;30.02;;
18997;SDS011;9632;51.018;4.284;2023-06-22T14:41:28;47.00;;;29.58;;
18997;SDS011;9632;51.018;4.284;2023-06-22T14:43:55;40.88;;;27.45;;
18997;SDS011;9632;51.018;4.284;2023-06-22T14:46:20;40.70;;;27.15;;
18997;SDS011;9632;51.018;4.284;2023-06-22T14:48:46;41.20;;;27.23;;
18997;SDS011;9632;51.018;4.284;2023-06-22T14:51:12;45.72;;;28.70;;